Grafton, VT (05146)

1:23 PM EDT on April 24, 2017 (GMT -0400)
Walker Schoolhouse | | Change Station

Elev 781 ft 43.18 °N, 72.59 °W | Updated 3 minutes ago

Clear
Clear
74.7 °F
Feels Like 77 °F
N
4.4
Wind Variable Wind from North
Gusts 9.4 mph

Today
High -- | Low -- °F
--% Chance of Precip.
Yesterday
High -- | Low -- °F
Precip. -- in
Pressure 30.16 in
Visibility 10.0 miles
Clouds Clear
Heat Index 77 °F
Dew Point 38 °F
Humidity 26%
Rainfall 0.00 in
Snow Depth Not available.
5:53 AM 7:44 PM
Waning Crescent, 5% visible
METAR KVSF 241654Z AUTO 15005KT 10SM CLR 19/01 A3015 RMK AO2 SLP211 T01940006
Pressure 30.16 in
Visibility 10.0 miles
Clouds Clear
Heat Index 77 °F
Dew Point 38 °F
Humidity 26%
Rainfall 0.00 in
Snow Depth Not available.
5:53 AM 7:44 PM
Waning Crescent, 5% visible
METAR KVSF 241654Z AUTO 15005KT 10SM CLR 19/01 A3015 RMK AO2 SLP211 T01940006

Get Severe Weather Alerts

Thanks for signing up!

Be on the lookout for a verification email in your inbox.

You'll start receiving the daily forecast at 8 AM.

×

10-Day Weather Forecast

Almanac

Astronomy

Apr. 24, 2017 Rise Set
Actual Time
Civil Twilight
Nautical Twilight
Astronomical Twilight
Moon
Length of Visible Light
Length of Day
Tomorrow will be .
, % of the Moon is Illuminated

Today's Extremes

State Highs State Lows

Community

WunderPhotos

WunderBlog® & News

Nearby

Air Quality

  Air Quality AQ Index Pollutant
Not available.

Snow Depth

Station Depth Elevation

Earthquake Activity

City Distance Mag. Time & Date
Minimum magnitude displayed is 2.5.

Coastal Water Temperatures

Place Temperature

Stations

Nearby Weather Stations

Station Location Temp. Windchill Dew Point Humidity Wind Precip. Elev Updated Type
                   

Watches & Warnings

There are currently no watches in effect.